Onley, Virginia
Current Conditions -  °F | °C
As of 7:35 AM on Saturday 20 Dec 2014 (Local Time) from KMFV Reporting Station
Clear Clear  
Wind Chill: -2°   Ceiling: Unl
Heat Index: -2°   Visibility: 10mi
Dew Point: -4°   Wind: 0mph
Humidity: 86%   Direction: NA
Pressure: 30.31"   Gusts: NA
Location:  37.69°N, 75.72°W
Report Text: KMFV 201235Z AUTO 00000KT 10SM CLR M02/M04 A3031 RMK AO2
Loading
Personal Weather Stations






























Interactive Weather Map New forecast layout! Learn more

10-Day Weather Forecast

Advertisements
Track Severe Weather on mobile